sensor_id;sensor_type;location;lat;lon;timestamp;temperature;humidity
22185;DHT22;11258;52.516;13.318;2023-06-14T00:00:47;16.10;99.90
22185;DHT22;11258;52.516;13.318;2023-06-14T00:03:14;16.10;99.90
22185;DHT22;11258;52.516;13.318;2023-06-14T00:05:43;16.10;99.90
22185;DHT22;11258;52.516;13.318;2023-06-14T00:08:09;16.00;99.90
22185;DHT22;11258;52.516;13.318;2023-06-14T00:10:36;16.10;99.90
22185;DHT22;11258;52.516;13.318;2023-06-14T00:13:05;16.10;99.90
22185;DHT22;11258;52.516;13.318;2023-06-14T00:15:32;16.10;99.90
22185;DHT22;11258;52.516;13.318;2023-06-14T00:17:58;16.10;99.90
22185;DHT22;11258;52.516;13.318;2023-06-14T00:20:28;16.00;99.90
22185;DHT22;11258;52.516;13.318;2023-06-14T00:22:54;15.80;99.90
22185;DHT22;11258;52.516;13.318;2023-06-14T00:25:23;15.90;99.90
22185;DHT22;11258;52.516;13.318;2023-06-14T00:27:51;15.90;99.90
22185;DHT22;11258;52.516;13.318;2023-06-14T00:30:16;15.90;99.90
22185;DHT22;11258;52.516;13.318;2023-06-14T00:32:43;15.80;99.90
22185;DHT22;11258;52.516;13.318;2023-06-14T00:35:09;15.80;99.90
22185;DHT22;11258;52.516;13.318;2023-06-14T00:37:35;15.80;99.90
22185;DHT22;11258;52.516;13.318;2023-06-14T00:40:01;15.90;99.90
22185;DHT22;11258;52.516;13.318;2023-06-14T00:42:27;15.90;99.90
22185;DHT22;11258;52.516;13.318;2023-06-14T00:44:54;15.90;99.90
22185;DHT22;11258;52.516;13.318;2023-06-14T00:47:20;15.80;99.90
22185;DHT22;11258;52.516;13.318;2023-06-14T00:49:47;15.80;99.90
22185;DHT22;11258;52.516;13.318;2023-06-14T00:52:14;15.70;99.90
22185;DHT22;11258;52.516;13.318;2023-06-14T00:54:40;15.80;99.90
22185;DHT22;11258;52.516;13.318;2023-06-14T00:57:06;15.70;99.90
22185;DHT22;11258;52.516;13.318;2023-06-14T00:59:33;15.60;99.90
22185;DHT22;11258;52.516;13.318;2023-06-14T01:01:58;15.50;99.90
22185;DHT22;11258;52.516;13.318;2023-06-14T01:04:24;15.50;99.90
22185;DHT22;11258;52.516;13.318;2023-06-14T01:07:07;15.60;99.90
22185;DHT22;11258;52.516;13.318;2023-06-14T01:15:04;15.60;99.90
22185;DHT22;11258;52.516;13.318;2023-06-14T01:17:30;15.50;99.90
22185;DHT22;11258;52.516;13.318;2023-06-14T01:19:58;15.50;99.90
22185;DHT22;11258;52.516;13.318;2023-06-14T01:22:28;15.60;99.90
22185;DHT22;11258;52.516;13.318;2023-06-14T01:24:54;15.60;99.90
22185;DHT22;11258;52.516;13.318;2023-06-14T01:27:29;15.50;99.90
22185;DHT22;11258;52.516;13.318;2023-06-14T01:29:58;15.50;99.90
22185;DHT22;11258;52.516;13.318;2023-06-14T01:32:26;15.50;99.90
22185;DHT22;11258;52.516;13.318;2023-06-14T01:34:51;15.60;99.90
22185;DHT22;11258;52.516;13.318;2023-06-14T01:37:18;15.60;99.90
22185;DHT22;11258;52.516;13.318;2023-06-14T01:39:44;15.60;99.90
22185;DHT22;11258;52.516;13.318;2023-06-14T01:42:12;15.60;99.90
22185;DHT22;11258;52.516;13.318;2023-06-14T01:44:39;15.50;99.90
22185;DHT22;11258;52.516;13.318;2023-06-14T01:47:05;15.50;99.90
22185;DHT22;11258;52.516;13.318;2023-06-14T01:49:34;15.60;99.90
22185;DHT22;11258;52.516;13.318;2023-06-14T01:52:00;15.60;99.90
22185;DHT22;11258;52.516;13.318;2023-06-14T01:54:26;15.60;99.90
22185;DHT22;11258;52.516;13.318;2023-06-14T01:56:52;15.70;99.90
22185;DHT22;11258;52.516;13.318;2023-06-14T01:59:18;15.60;99.90
22185;DHT22;11258;52.516;13.318;2023-06-14T02:01:44;15.60;99.90
22185;DHT22;11258;52.516;13.318;2023-06-14T02:04:11;15.60;99.90
22185;DHT22;11258;52.516;13.318;2023-06-14T02:06:37;15.60;99.90
22185;DHT22;11258;52.516;13.318;2023-06-14T02:09:03;15.50;99.90
22185;DHT22;11258;52.516;13.318;2023-06-14T02:11:29;15.50;99.90
22185;DHT22;11258;52.516;13.318;2023-06-14T02:13:56;15.50;99.90
22185;DHT22;11258;52.516;13.318;2023-06-14T02:16:22;15.40;99.90
22185;DHT22;11258;52.516;13.318;2023-06-14T02:18:47;15.30;99.90
22185;DHT22;11258;52.516;13.318;2023-06-14T02:21:14;15.30;99.90
22185;DHT22;11258;52.516;13.318;2023-06-14T02:23:39;15.30;99.90
22185;DHT22;11258;52.516;13.318;2023-06-14T02:26:05;15.30;99.90
22185;DHT22;11258;52.516;13.318;2023-06-14T02:28:31;15.30;99.90
22185;DHT22;11258;52.516;13.318;2023-06-14T02:30:57;15.30;99.90
22185;DHT22;11258;52.516;13.318;2023-06-14T02:33:22;15.20;99.90
22185;DHT22;11258;52.516;13.318;2023-06-14T02:35:48;15.20;99.90
22185;DHT22;11258;52.516;13.318;2023-06-14T02:38:14;15.20;99.90
22185;DHT22;11258;52.516;13.318;2023-06-14T02:40:39;15.10;99.90
22185;DHT22;11258;52.516;13.318;2023-06-14T02:43:08;15.20;99.90
22185;DHT22;11258;52.516;13.318;2023-06-14T02:45:33;15.10;99.90
22185;DHT22;11258;52.516;13.318;2023-06-14T02:47:59;15.10;99.90
22185;DHT22;11258;52.516;13.318;2023-06-14T02:50:24;15.00;99.90
22185;DHT22;11258;52.516;13.318;2023-06-14T02:52:50;15.10;99.90
22185;DHT22;11258;52.516;13.318;2023-06-14T02:55:18;15.00;99.90
22185;DHT22;11258;52.516;13.318;2023-06-14T02:57:43;15.00;99.90
22185;DHT22;11258;52.516;13.318;2023-06-14T03:00:09;15.00;99.90
22185;DHT22;11258;52.516;13.318;2023-06-14T03:02:35;15.00;99.90
22185;DHT22;11258;52.516;13.318;2023-06-14T03:05:01;15.00;99.90
22185;DHT22;11258;52.516;13.318;2023-06-14T03:07:28;15.00;99.90
22185;DHT22;11258;52.516;13.318;2023-06-14T03:09:55;15.00;99.90
22185;DHT22;11258;52.516;13.318;2023-06-14T03:12:20;15.00;99.90
22185;DHT22;11258;52.516;13.318;2023-06-14T03:14:46;15.10;99.90
22185;DHT22;11258;52.516;13.318;2023-06-14T03:17:12;15.10;99.90
22185;DHT22;11258;52.516;13.318;2023-06-14T03:19:38;15.10;99.90
22185;DHT22;11258;52.516;13.318;2023-06-14T03:22:03;15.20;99.90
22185;DHT22;11258;52.516;13.318;2023-06-14T03:24:30;15.30;99.90
22185;DHT22;11258;52.516;13.318;2023-06-14T03:26:57;15.90;99.90
22185;DHT22;11258;52.516;13.318;2023-06-14T03:29:22;16.50;99.90
22185;DHT22;11258;52.516;13.318;2023-06-14T03:32:01;16.70;99.90
22185;DHT22;11258;52.516;13.318;2023-06-14T03:34:27;16.90;99.90
22185;DHT22;11258;52.516;13.318;2023-06-14T03:36:53;16.90;99.90
22185;DHT22;11258;52.516;13.318;2023-06-14T03:39:19;17.50;99.90
22185;DHT22;11258;52.516;13.318;2023-06-14T03:41:45;17.70;99.90
22185;DHT22;11258;52.516;13.318;2023-06-14T03:44:11;17.80;99.90
22185;DHT22;11258;52.516;13.318;2023-06-14T03:46:36;17.90;99.90
22185;DHT22;11258;52.516;13.318;2023-06-14T03:49:02;17.60;99.90
22185;DHT22;11258;52.516;13.318;2023-06-14T03:51:28;17.20;99.90
22185;DHT22;11258;52.516;13.318;2023-06-14T03:53:54;17.20;99.90
22185;DHT22;11258;52.516;13.318;2023-06-14T03:56:21;17.20;99.90
22185;DHT22;11258;52.516;13.318;2023-06-14T03:58:46;17.60;99.90
22185;DHT22;11258;52.516;13.318;2023-06-14T04:01:12;19.50;99.90
22185;DHT22;11258;52.516;13.318;2023-06-14T04:03:38;19.50;99.90
22185;DHT22;11258;52.516;13.318;2023-06-14T04:06:05;19.10;99.90
22185;DHT22;11258;52.516;13.318;2023-06-14T04:08:32;19.80;99.90
22185;DHT22;11258;52.516;13.318;2023-06-14T04:10:57;20.70;99.90
22185;DHT22;11258;52.516;13.318;2023-06-14T04:13:23;22.00;99.90
22185;DHT22;11258;52.516;13.318;2023-06-14T04:15:49;22.40;99.90
22185;DHT22;11258;52.516;13.318;2023-06-14T04:18:14;21.60;99.90
22185;DHT22;11258;52.516;13.318;2023-06-14T04:20:40;22.00;99.90
22185;DHT22;11258;52.516;13.318;2023-06-14T04:23:17;22.90;99.90
22185;DHT22;11258;52.516;13.318;2023-06-14T04:25:46;23.80;99.90
22185;DHT22;11258;52.516;13.318;2023-06-14T04:28:15;24.40;99.90
22185;DHT22;11258;52.516;13.318;2023-06-14T04:30:43;24.90;99.90
22185;DHT22;11258;52.516;13.318;2023-06-14T04:33:10;25.40;99.90
22185;DHT22;11258;52.516;13.318;2023-06-14T04:35:36;25.30;99.90
22185;DHT22;11258;52.516;13.318;2023-06-14T04:38:05;25.90;99.90
22185;DHT22;11258;52.516;13.318;2023-06-14T04:40:35;26.10;99.90
22185;DHT22;11258;52.516;13.318;2023-06-14T04:43:01;26.50;99.90
22185;DHT22;11258;52.516;13.318;2023-06-14T04:45:32;26.90;99.90
22185;DHT22;11258;52.516;13.318;2023-06-14T04:47:59;27.40;99.90
22185;DHT22;11258;52.516;13.318;2023-06-14T04:50:25;27.30;99.90
22185;DHT22;11258;52.516;13.318;2023-06-14T04:52:50;28.10;99.90
22185;DHT22;11258;52.516;13.318;2023-06-14T04:55:17;27.00;99.90
22185;DHT22;11258;52.516;13.318;2023-06-14T04:57:44;27.60;99.90
22185;DHT22;11258;52.516;13.318;2023-06-14T05:00:10;27.30;99.90
22185;DHT22;11258;52.516;13.318;2023-06-14T05:02:37;27.60;99.90
22185;DHT22;11258;52.516;13.318;2023-06-14T05:05:03;28.40;99.90
22185;DHT22;11258;52.516;13.318;2023-06-14T05:07:32;29.00;99.90
22185;DHT22;11258;52.516;13.318;2023-06-14T05:09:59;28.90;99.90
22185;DHT22;11258;52.516;13.318;2023-06-14T05:12:25;29.30;99.00
22185;DHT22;11258;52.516;13.318;2023-06-14T05:14:50;28.90;98.50
22185;DHT22;11258;52.516;13.318;2023-06-14T05:17:16;28.90;97.70
22185;DHT22;11258;52.516;13.318;2023-06-14T05:19:42;27.50;99.00
22185;DHT22;11258;52.516;13.318;2023-06-14T05:22:08;25.70;99.90
22185;DHT22;11258;52.516;13.318;2023-06-14T05:24:33;24.10;99.90
22185;DHT22;11258;52.516;13.318;2023-06-14T05:26:59;22.70;99.90
22185;DHT22;11258;52.516;13.318;2023-06-14T05:29:25;21.80;99.90
22185;DHT22;11258;52.516;13.318;2023-06-14T05:31:51;20.80;99.90
22185;DHT22;11258;52.516;13.318;2023-06-14T05:34:17;20.40;99.90
22185;DHT22;11258;52.516;13.318;2023-06-14T05:36:42;19.90;99.90
22185;DHT22;11258;52.516;13.318;2023-06-14T05:39:08;19.60;99.90
22185;DHT22;11258;52.516;13.318;2023-06-14T05:41:33;19.30;99.90
22185;DHT22;11258;52.516;13.318;2023-06-14T05:43:59;19.20;99.90
22185;DHT22;11258;52.516;13.318;2023-06-14T05:46:26;19.10;99.90
22185;DHT22;11258;52.516;13.318;2023-06-14T05:48:52;18.90;99.90
22185;DHT22;11258;52.516;13.318;2023-06-14T05:51:18;18.60;99.90
22185;DHT22;11258;52.516;13.318;2023-06-14T05:53:47;18.40;99.90
22185;DHT22;11258;52.516;13.318;2023-06-14T05:56:13;18.20;99.90
22185;DHT22;11258;52.516;13.318;2023-06-14T05:58:39;18.20;99.90
22185;DHT22;11258;52.516;13.318;2023-06-14T06:01:05;18.00;99.90
22185;DHT22;11258;52.516;13.318;2023-06-14T06:03:31;18.00;99.90
22185;DHT22;11258;52.516;13.318;2023-06-14T06:05:56;17.90;99.90
22185;DHT22;11258;52.516;13.318;2023-06-14T06:08:22;17.80;99.90
22185;DHT22;11258;52.516;13.318;2023-06-14T06:10:48;17.60;99.90
22185;DHT22;11258;52.516;13.318;2023-06-14T06:13:13;17.80;99.90
22185;DHT22;11258;52.516;13.318;2023-06-14T06:15:39;17.90;99.90
22185;DHT22;11258;52.516;13.318;2023-06-14T06:18:04;18.00;99.90
22185;DHT22;11258;52.516;13.318;2023-06-14T06:20:30;18.10;99.90
22185;DHT22;11258;52.516;13.318;2023-06-14T06:22:59;18.10;99.90
22185;DHT22;11258;52.516;13.318;2023-06-14T06:25:26;18.00;99.90
22185;DHT22;11258;52.516;13.318;2023-06-14T06:27:53;18.10;99.90
22185;DHT22;11258;52.516;13.318;2023-06-14T06:30:19;18.20;99.90
22185;DHT22;11258;52.516;13.318;2023-06-14T06:32:45;18.20;99.90
22185;DHT22;11258;52.516;13.318;2023-06-14T06:35:11;18.30;99.90
22185;DHT22;11258;52.516;13.318;2023-06-14T06:37:38;18.30;99.90
22185;DHT22;11258;52.516;13.318;2023-06-14T06:40:04;18.30;99.90
22185;DHT22;11258;52.516;13.318;2023-06-14T06:42:31;18.30;99.90
22185;DHT22;11258;52.516;13.318;2023-06-14T06:44:57;18.20;99.90
22185;DHT22;11258;52.516;13.318;2023-06-14T06:47:23;18.20;99.90
22185;DHT22;11258;52.516;13.318;2023-06-14T06:49:50;18.10;99.90
22185;DHT22;11258;52.516;13.318;2023-06-14T06:52:16;18.30;99.90
22185;DHT22;11258;52.516;13.318;2023-06-14T06:54:41;18.30;99.90
22185;DHT22;11258;52.516;13.318;2023-06-14T06:57:07;18.40;99.90
22185;DHT22;11258;52.516;13.318;2023-06-14T06:59:33;18.60;99.90
22185;DHT22;11258;52.516;13.318;2023-06-14T07:01:59;18.70;99.90
22185;DHT22;11258;52.516;13.318;2023-06-14T07:04:24;18.70;99.90
22185;DHT22;11258;52.516;13.318;2023-06-14T07:06:50;18.80;99.90
22185;DHT22;11258;52.516;13.318;2023-06-14T07:09:16;18.80;99.90
22185;DHT22;11258;52.516;13.318;2023-06-14T07:11:43;18.90;99.90
22185;DHT22;11258;52.516;13.318;2023-06-14T07:14:09;19.20;99.90
22185;DHT22;11258;52.516;13.318;2023-06-14T07:16:34;19.40;99.90
22185;DHT22;11258;52.516;13.318;2023-06-14T07:19:04;19.60;99.90
22185;DHT22;11258;52.516;13.318;2023-06-14T07:21:30;19.70;99.90
22185;DHT22;11258;52.516;13.318;2023-06-14T07:23:56;19.80;99.90
22185;DHT22;11258;52.516;13.318;2023-06-14T07:26:22;19.50;99.90
22185;DHT22;11258;52.516;13.318;2023-06-14T07:28:48;19.30;99.90
22185;DHT22;11258;52.516;13.318;2023-06-14T07:31:14;19.60;99.90
22185;DHT22;11258;52.516;13.318;2023-06-14T07:33:41;19.70;99.90
22185;DHT22;11258;52.516;13.318;2023-06-14T07:36:07;20.00;99.90
22185;DHT22;11258;52.516;13.318;2023-06-14T07:38:33;20.40;99.90
22185;DHT22;11258;52.516;13.318;2023-06-14T07:41:00;20.80;99.90
22185;DHT22;11258;52.516;13.318;2023-06-14T07:43:25;21.00;99.90
22185;DHT22;11258;52.516;13.318;2023-06-14T07:45:51;21.80;99.90
22185;DHT22;11258;52.516;13.318;2023-06-14T07:48:18;23.00;99.90
22185;DHT22;11258;52.516;13.318;2023-06-14T07:50:43;23.80;99.90
22185;DHT22;11258;52.516;13.318;2023-06-14T07:53:09;24.10;99.90
22185;DHT22;11258;52.516;13.318;2023-06-14T07:55:35;24.60;99.90
22185;DHT22;11258;52.516;13.318;2023-06-14T07:58:03;25.10;99.90
22185;DHT22;11258;52.516;13.318;2023-06-14T08:00:29;25.70;99.90
22185;DHT22;11258;52.516;13.318;2023-06-14T08:02:55;26.10;99.90
22185;DHT22;11258;52.516;13.318;2023-06-14T08:05:27;25.90;99.90
22185;DHT22;11258;52.516;13.318;2023-06-14T08:07:53;26.80;99.90
22185;DHT22;11258;52.516;13.318;2023-06-14T08:10:19;28.00;99.90
22185;DHT22;11258;52.516;13.318;2023-06-14T08:12:45;29.20;99.90
22185;DHT22;11258;52.516;13.318;2023-06-14T08:15:11;29.70;99.90
22185;DHT22;11258;52.516;13.318;2023-06-14T08:17:39;31.00;99.80
22185;DHT22;11258;52.516;13.318;2023-06-14T08:20:06;30.80;97.20
22185;DHT22;11258;52.516;13.318;2023-06-14T08:22:32;29.70;97.60
22185;DHT22;11258;52.516;13.318;2023-06-14T08:25:01;28.30;99.40
22185;DHT22;11258;52.516;13.318;2023-06-14T08:27:27;26.80;99.90
22185;DHT22;11258;52.516;13.318;2023-06-14T08:29:53;25.90;99.90
22185;DHT22;11258;52.516;13.318;2023-06-14T08:32:19;25.50;99.90
22185;DHT22;11258;52.516;13.318;2023-06-14T08:34:44;25.40;99.90
22185;DHT22;11258;52.516;13.318;2023-06-14T08:37:10;25.30;99.90
22185;DHT22;11258;52.516;13.318;2023-06-14T08:39:36;26.20;99.90
22185;DHT22;11258;52.516;13.318;2023-06-14T08:42:02;27.60;99.90
22185;DHT22;11258;52.516;13.318;2023-06-14T08:44:29;29.00;99.90
22185;DHT22;11258;52.516;13.318;2023-06-14T08:46:56;28.80;99.50
22185;DHT22;11258;52.516;13.318;2023-06-14T08:49:23;28.40;99.40
22185;DHT22;11258;52.516;13.318;2023-06-14T08:51:58;27.30;99.90
22185;DHT22;11258;52.516;13.318;2023-06-14T08:54:29;27.00;99.90
22185;DHT22;11258;52.516;13.318;2023-06-14T08:57:02;26.50;99.90
22185;DHT22;11258;52.516;13.318;2023-06-14T08:59:28;25.70;99.90
22185;DHT22;11258;52.516;13.318;2023-06-14T09:01:54;25.00;99.90
22185;DHT22;11258;52.516;13.318;2023-06-14T09:04:26;24.90;99.90
22185;DHT22;11258;52.516;13.318;2023-06-14T09:06:55;23.90;99.90
22185;DHT22;11258;52.516;13.318;2023-06-14T09:09:21;23.80;99.90
22185;DHT22;11258;52.516;13.318;2023-06-14T09:11:49;23.70;99.90
22185;DHT22;11258;52.516;13.318;2023-06-14T09:14:15;23.40;99.90
22185;DHT22;11258;52.516;13.318;2023-06-14T09:16:41;23.80;99.90
22185;DHT22;11258;52.516;13.318;2023-06-14T09:19:07;24.20;99.90
22185;DHT22;11258;52.516;13.318;2023-06-14T09:21:35;24.50;99.90
22185;DHT22;11258;52.516;13.318;2023-06-14T09:24:03;24.90;99.90
22185;DHT22;11258;52.516;13.318;2023-06-14T09:26:29;24.90;99.90
22185;DHT22;11258;52.516;13.318;2023-06-14T09:28:55;25.10;99.90
22185;DHT22;11258;52.516;13.318;2023-06-14T09:31:21;24.90;99.90
22185;DHT22;11258;52.516;13.318;2023-06-14T09:33:49;24.70;99.90
22185;DHT22;11258;52.516;13.318;2023-06-14T09:36:22;24.10;99.90
22185;DHT22;11258;52.516;13.318;2023-06-14T09:39:02;23.60;99.90
22185;DHT22;11258;52.516;13.318;2023-06-14T09:41:40;23.20;99.90
22185;DHT22;11258;52.516;13.318;2023-06-14T09:44:09;22.90;99.90
22185;DHT22;11258;52.516;13.318;2023-06-14T09:46:36;23.00;99.90
22185;DHT22;11258;52.516;13.318;2023-06-14T09:49:02;23.10;99.90
22185;DHT22;11258;52.516;13.318;2023-06-14T09:51:28;23.00;99.90
22185;DHT22;11258;52.516;13.318;2023-06-14T09:54:00;23.10;99.90
22185;DHT22;11258;52.516;13.318;2023-06-14T09:56:27;22.90;99.90
22185;DHT22;11258;52.516;13.318;2023-06-14T09:58:55;22.60;99.90
22185;DHT22;11258;52.516;13.318;2023-06-14T10:01:23;22.70;99.90
22185;DHT22;11258;52.516;13.318;2023-06-14T10:03:55;22.80;99.90
22185;DHT22;11258;52.516;13.318;2023-06-14T10:06:22;23.10;99.90
22185;DHT22;11258;52.516;13.318;2023-06-14T10:08:52;23.10;99.90
22185;DHT22;11258;52.516;13.318;2023-06-14T10:11:17;22.80;99.90
22185;DHT22;11258;52.516;13.318;2023-06-14T10:13:43;22.70;99.90
22185;DHT22;11258;52.516;13.318;2023-06-14T10:16:15;22.80;99.90
22185;DHT22;11258;52.516;13.318;2023-06-14T10:21:18;22.40;99.90
22185;DHT22;11258;52.516;13.318;2023-06-14T10:23:48;22.40;99.90
22185;DHT22;11258;52.516;13.318;2023-06-14T10:26:22;22.50;99.90
22185;DHT22;11258;52.516;13.318;2023-06-14T10:29:11;22.80;99.90
22185;DHT22;11258;52.516;13.318;2023-06-14T10:31:45;23.00;99.90
22185;DHT22;11258;52.516;13.318;2023-06-14T10:34:12;23.20;99.90
22185;DHT22;11258;52.516;13.318;2023-06-14T10:36:43;23.10;99.90
22185;DHT22;11258;52.516;13.318;2023-06-14T10:39:16;23.00;99.90
22185;DHT22;11258;52.516;13.318;2023-06-14T10:41:51;23.30;99.90
22185;DHT22;11258;52.516;13.318;2023-06-14T10:46:47;23.20;99.90
22185;DHT22;11258;52.516;13.318;2023-06-14T10:49:16;23.60;99.90
22185;DHT22;11258;52.516;13.318;2023-06-14T10:51:46;23.40;99.90
22185;DHT22;11258;52.516;13.318;2023-06-14T10:54:16;23.60;99.90
22185;DHT22;11258;52.516;13.318;2023-06-14T10:59:18;23.20;99.90
22185;DHT22;11258;52.516;13.318;2023-06-14T11:04:21;23.00;99.90
22185;DHT22;11258;52.516;13.318;2023-06-14T11:06:49;23.20;99.90
22185;DHT22;11258;52.516;13.318;2023-06-14T11:12:01;23.10;99.90
22185;DHT22;11258;52.516;13.318;2023-06-14T11:14:30;23.30;99.90
22185;DHT22;11258;52.516;13.318;2023-06-14T11:16:56;23.70;99.90
22185;DHT22;11258;52.516;13.318;2023-06-14T11:19:22;23.90;99.90
22185;DHT22;11258;52.516;13.318;2023-06-14T11:21:50;24.10;99.90
22185;DHT22;11258;52.516;13.318;2023-06-14T11:24:16;24.10;99.90
22185;DHT22;11258;52.516;13.318;2023-06-14T11:26:42;24.30;99.90
22185;DHT22;11258;52.516;13.318;2023-06-14T11:29:08;24.60;99.90
22185;DHT22;11258;52.516;13.318;2023-06-14T11:31:34;24.50;99.90
22185;DHT22;11258;52.516;13.318;2023-06-14T11:34:00;24.10;99.90
22185;DHT22;11258;52.516;13.318;2023-06-14T11:36:30;24.10;99.90
22185;DHT22;11258;52.516;13.318;2023-06-14T11:39:03;23.80;99.90
22185;DHT22;11258;52.516;13.318;2023-06-14T11:41:40;23.90;99.90
22185;DHT22;11258;52.516;13.318;2023-06-14T11:44:07;24.30;99.90
22185;DHT22;11258;52.516;13.318;2023-06-14T11:46:33;24.10;99.90
22185;DHT22;11258;52.516;13.318;2023-06-14T11:48:58;24.00;99.90
22185;DHT22;11258;52.516;13.318;2023-06-14T11:51:29;24.00;99.90
22185;DHT22;11258;52.516;13.318;2023-06-14T11:53:55;24.00;99.90
22185;DHT22;11258;52.516;13.318;2023-06-14T11:56:20;24.20;99.90
22185;DHT22;11258;52.516;13.318;2023-06-14T11:58:46;24.60;99.90
22185;DHT22;11258;52.516;13.318;2023-06-14T12:01:17;24.40;99.90
22185;DHT22;11258;52.516;13.318;2023-06-14T12:03:52;24.30;99.90
22185;DHT22;11258;52.516;13.318;2023-06-14T12:06:27;24.70;99.90
22185;DHT22;11258;52.516;13.318;2023-06-14T12:08:58;24.60;99.90
22185;DHT22;11258;52.516;13.318;2023-06-14T12:11:31;24.70;99.90
22185;DHT22;11258;52.516;13.318;2023-06-14T12:13:57;24.70;99.90
22185;DHT22;11258;52.516;13.318;2023-06-14T12:16:30;24.30;99.90
22185;DHT22;11258;52.516;13.318;2023-06-14T12:19:00;24.10;99.90
22185;DHT22;11258;52.516;13.318;2023-06-14T12:21:27;24.00;99.90
22185;DHT22;11258;52.516;13.318;2023-06-14T12:23:54;24.30;99.90
22185;DHT22;11258;52.516;13.318;2023-06-14T12:26:20;24.50;99.90
22185;DHT22;11258;52.516;13.318;2023-06-14T12:28:47;24.50;99.90
22185;DHT22;11258;52.516;13.318;2023-06-14T12:31:15;24.30;99.90
22185;DHT22;11258;52.516;13.318;2023-06-14T12:33:41;23.90;99.90
22185;DHT22;11258;52.516;13.318;2023-06-14T12:36:08;23.70;99.90
22185;DHT22;11258;52.516;13.318;2023-06-14T12:38:34;23.60;99.90
22185;DHT22;11258;52.516;13.318;2023-06-14T12:41:00;23.60;99.90
22185;DHT22;11258;52.516;13.318;2023-06-14T12:43:26;23.80;99.90
22185;DHT22;11258;52.516;13.318;2023-06-14T12:45:51;23.80;99.90
22185;DHT22;11258;52.516;13.318;2023-06-14T12:48:17;23.60;99.90
22185;DHT22;11258;52.516;13.318;2023-06-14T12:50:43;23.60;99.90
22185;DHT22;11258;52.516;13.318;2023-06-14T12:53:09;23.50;99.90
22185;DHT22;11258;52.516;13.318;2023-06-14T12:55:34;23.60;99.90
22185;DHT22;11258;52.516;13.318;2023-06-14T12:58:00;23.80;99.90
22185;DHT22;11258;52.516;13.318;2023-06-14T13:00:26;23.90;99.90
22185;DHT22;11258;52.516;13.318;2023-06-14T13:02:52;24.00;99.80
22185;DHT22;11258;52.516;13.318;2023-06-14T13:05:18;24.10;99.80
22185;DHT22;11258;52.516;13.318;2023-06-14T13:07:44;24.00;98.80
22185;DHT22;11258;52.516;13.318;2023-06-14T13:10:10;24.00;98.70
22185;DHT22;11258;52.516;13.318;2023-06-14T13:12:36;24.00;99.00
22185;DHT22;11258;52.516;13.318;2023-06-14T13:15:02;23.90;99.00
22185;DHT22;11258;52.516;13.318;2023-06-14T13:17:27;24.00;98.70
22185;DHT22;11258;52.516;13.318;2023-06-14T13:19:53;24.20;98.40
22185;DHT22;11258;52.516;13.318;2023-06-14T13:22:19;24.40;98.00
22185;DHT22;11258;52.516;13.318;2023-06-14T13:24:44;24.50;97.90
22185;DHT22;11258;52.516;13.318;2023-06-14T13:27:10;24.70;97.70
22185;DHT22;11258;52.516;13.318;2023-06-14T13:29:36;24.60;97.50
22185;DHT22;11258;52.516;13.318;2023-06-14T13:32:03;24.60;97.40
22185;DHT22;11258;52.516;13.318;2023-06-14T13:34:28;24.60;97.50
22185;DHT22;11258;52.516;13.318;2023-06-14T13:36:54;24.80;97.40
22185;DHT22;11258;52.516;13.318;2023-06-14T13:39:20;25.20;97.00
22185;DHT22;11258;52.516;13.318;2023-06-14T13:41:46;25.30;96.90
22185;DHT22;11258;52.516;13.318;2023-06-14T13:44:12;25.50;96.20
22185;DHT22;11258;52.516;13.318;2023-06-14T13:46:40;25.50;96.10
22185;DHT22;11258;52.516;13.318;2023-06-14T13:49:08;25.40;95.50
22185;DHT22;11258;52.516;13.318;2023-06-14T13:51:33;25.30;95.20
22185;DHT22;11258;52.516;13.318;2023-06-14T13:54:00;25.30;95.50
22185;DHT22;11258;52.516;13.318;2023-06-14T13:56:26;25.40;95.20
22185;DHT22;11258;52.516;13.318;2023-06-14T13:58:52;25.20;94.50
22185;DHT22;11258;52.516;13.318;2023-06-14T14:01:18;25.30;94.80
22185;DHT22;11258;52.516;13.318;2023-06-14T14:03:46;25.40;94.00
22185;DHT22;11258;52.516;13.318;2023-06-14T14:06:12;25.50;93.40
22185;DHT22;11258;52.516;13.318;2023-06-14T14:08:38;25.40;94.00
22185;DHT22;11258;52.516;13.318;2023-06-14T14:14:01;25.40;93.60
22185;DHT22;11258;52.516;13.318;2023-06-14T14:16:26;25.30;93.20
22185;DHT22;11258;52.516;13.318;2023-06-14T14:18:52;25.30;93.30
22185;DHT22;11258;52.516;13.318;2023-06-14T14:21:18;25.00;93.00
22185;DHT22;11258;52.516;13.318;2023-06-14T14:23:43;25.00;93.30
22185;DHT22;11258;52.516;13.318;2023-06-14T14:26:10;25.00;93.70
22185;DHT22;11258;52.516;13.318;2023-06-14T14:28:36;25.10;93.20
22185;DHT22;11258;52.516;13.318;2023-06-14T14:31:02;25.00;93.40
22185;DHT22;11258;52.516;13.318;2023-06-14T14:33:27;24.90;94.70
22185;DHT22;11258;52.516;13.318;2023-06-14T14:35:53;24.90;95.60
22185;DHT22;11258;52.516;13.318;2023-06-14T14:38:18;24.80;95.90
22185;DHT22;11258;52.516;13.318;2023-06-14T14:40:45;24.60;96.30
22185;DHT22;11258;52.516;13.318;2023-06-14T14:43:11;24.60;96.60
22185;DHT22;11258;52.516;13.318;2023-06-14T14:45:37;24.50;96.90
22185;DHT22;11258;52.516;13.318;2023-06-14T14:48:03;24.50;97.00
22185;DHT22;11258;52.516;13.318;2023-06-14T14:50:29;24.40;97.10
22185;DHT22;11258;52.516;13.318;2023-06-14T14:52:55;24.30;97.50
22185;DHT22;11258;52.516;13.318;2023-06-14T14:55:20;24.10;97.60
22185;DHT22;11258;52.516;13.318;2023-06-14T14:57:46;24.00;97.50
22185;DHT22;11258;52.516;13.318;2023-06-14T15:00:15;24.00;97.80
22185;DHT22;11258;52.516;13.318;2023-06-14T15:02:41;23.80;98.00
22185;DHT22;11258;52.516;13.318;2023-06-14T15:05:07;23.70;98.30
22185;DHT22;11258;52.516;13.318;2023-06-14T15:07:33;23.70;98.40
22185;DHT22;11258;52.516;13.318;2023-06-14T15:09:59;23.70;98.50
22185;DHT22;11258;52.516;13.318;2023-06-14T15:12:25;23.80;98.70
22185;DHT22;11258;52.516;13.318;2023-06-14T15:14:51;23.80;98.60
22185;DHT22;11258;52.516;13.318;2023-06-14T15:17:20;23.80;98.70
22185;DHT22;11258;52.516;13.318;2023-06-14T15:19:47;23.70;98.90
22185;DHT22;11258;52.516;13.318;2023-06-14T15:22:13;23.60;99.00
22185;DHT22;11258;52.516;13.318;2023-06-14T15:24:41;23.50;98.90
22185;DHT22;11258;52.516;13.318;2023-06-14T15:27:06;23.40;99.00
22185;DHT22;11258;52.516;13.318;2023-06-14T15:29:33;23.40;98.70
22185;DHT22;11258;52.516;13.318;2023-06-14T15:32:00;23.30;98.90
22185;DHT22;11258;52.516;13.318;2023-06-14T15:34:26;23.40;98.80